CYVM

Qikiqtarjuaq Airport

Qikiqtarjuaq, Canada
METAR CYVM 192300Z AUTO 19006KT 9SM CLR M01/M04 A3013 RMK SLP206
Observed Flight Rules
Sep-19 @ 23:00 UTC (17 minutes ago) Visual Flight Rules
Wind Visibility Clouds
190° at 6 knots 9 miles
  • Clear skies
Temperatures Readings
Current -1°C / 30°F
Dewpoint -4°C / 25°F
Humidity 80%
Altimeter 30.13" Hg
Pressure 1020.6 hPa
Elevation 6
METAR CYVM 192300Z AUTO 19006KT 9SM CLR M01/M04 A3013 RMK SLP206
Observed Flight Rules
Sep-19 @ 23:00 UTC
(17 minutes ago)
VFR
Wind Visibility
190° at 6 knots 9 miles
Clouds
  • Clear skies
Temperature Dewpoint
-1°C / 30°F -4°C / 25°F
Humidity Altimeter Pressure
80% 30.13" Hg 1020.6 hPa